^^
Station Historical Data
Daily Summary for May 26, 2017 Units:  Both    English   Metric
« Previous Day
Next Day »
Daily Weekly Monthly Yearly Custom
  High: Low: Average:
Temperature: 78.4 °F /  25.8 °C 47.5 °F /  8.6 °C 61.8 °F /  16.6 °C
Dew Point: 41.7 °F /  5.4 °C 34.9 °F /  1.6 °C 37.3 °F /  2.9 °C
Humidity: 64% 22% 43%
Wind Speed: 8.1mph /  13km/h - 0.7mph /  1.1km/h
Wind Gust: 12.0mph /  19.3km/h - -
Wind- - SW
Pressure: 30.26 in /  1024.6 hPa 30.14 in /  1020.5 hPa -
Precipitation: 0.00 in /  0 mm    
Historical Graphs
 
 
Tabular Data for May 26, 2017
Time Temperature Dew Point Pressure Wind Wind Speed Wind Gust Humidity Rainfall Rate (Hourly) solar Conditions
00:00 51.4 °F /  10.8 °C 35.8 °F /  2.1 °C 30.23in /  1023.6hPa Calm     55% 0.00in /  0mm 0.0 W/m2
00:06 51.3 °F /  10.7 °C 35.6 °F /  2 °C 30.23in /  1023.6hPa Calm     55% 0.00in /  0mm 0.0 W/m2
00:12 51.3 °F /  10.7 °C 36.1 °F /  2.3 °C 30.24in /  1023.9hPa Calm     56% 0.00in /  0mm 0.0 W/m2
00:18 51.1 °F /  10.6 °C 36.3 °F /  2.4 °C 30.24in /  1023.9hPa Calm     57% 0.00in /  0mm 0.0 W/m2
00:25 50.7 °F /  10.4 °C 36.0 °F /  2.2 °C 30.23in /  1023.6hPa Calm     57% 0.00in /  0mm 0.0 W/m2
00:31 50.5 °F /  10.3 °C 36.0 °F /  2.2 °C 30.23in /  1023.6hPa Calm     57% 0.00in /  0mm 0.0 W/m2
00:37 50.4 °F /  10.2 °C 36.1 °F /  2.3 °C 30.23in /  1023.6hPa Calm     58% 0.00in /  0mm 0.0 W/m2
00:43 50.4 °F /  10.2 °C 36.1 °F /  2.3 °C 30.23in /  1023.6hPa Calm   2.0mph /  3.2km/h 58% 0.00in /  0mm 0.0 W/m2
00:49 50.4 °F /  10.2 °C 36.1 °F /  2.3 °C 30.23in /  1023.6hPa SE 0.9mph /  1.4km/h 1.0mph /  1.6km/h 58% 0.00in /  0mm 0.0 W/m2
00:55 50.2 °F /  10.1 °C 36.0 °F /  2.2 °C 30.23in /  1023.6hPa SSE 0.9mph /  1.4km/h 1.0mph /  1.6km/h 58% 0.00in /  0mm 0.0 W/m2
01:08 49.8 °F /  9.9 °C 36.1 °F /  2.3 °C 30.23in /  1023.6hPa Calm   1.0mph /  1.6km/h 59% 0.00in /  0mm 0.0 W/m2
01:14 49.8 °F /  9.9 °C 36.1 °F /  2.3 °C 30.24in /  1023.9hPa Calm     59% 0.00in /  0mm 0.0 W/m2
01:20 49.6 °F /  9.8 °C 36.0 °F /  2.2 °C 30.24in /  1023.9hPa Calm     59% 0.00in /  0mm 0.0 W/m2
01:26 49.5 °F /  9.7 °C 36.1 °F /  2.3 °C 30.23in /  1023.6hPa Calm     60% 0.00in /  0mm 0.0 W/m2
01:32 49.5 °F /  9.7 °C 36.1 °F /  2.3 °C 30.23in /  1023.6hPa Calm     60% 0.00in /  0mm 0.0 W/m2
01:38 49.5 °F /  9.7 °C 36.1 °F /  2.3 °C 30.23in /  1023.6hPa Calm   2.0mph /  3.2km/h 60% 0.00in /  0mm 0.0 W/m2
01:44 49.5 °F /  9.7 °C 36.1 °F /  2.3 °C 30.23in /  1023.6hPa East 0.9mph /  1.4km/h 5.0mph /  8km/h 60% 0.00in /  0mm 0.0 W/m2
01:51 49.5 °F /  9.7 °C 35.8 °F /  2.1 °C 30.23in /  1023.6hPa Calm   1.0mph /  1.6km/h 59% 0.00in /  0mm 0.0 W/m2
01:57 49.5 °F /  9.7 °C 35.8 °F /  2.1 °C 30.22in /  1023.2hPa Calm   1.0mph /  1.6km/h 59% 0.00in /  0mm 0.0 W/m2
02:03 49.6 °F /  9.8 °C 36.0 °F /  2.2 °C 30.22in /  1023.2hPa Calm   1.0mph /  1.6km/h 59% 0.00in /  0mm 0.0 W/m2
02:09 49.6 °F /  9.8 °C 36.0 °F /  2.2 °C 30.22in /  1023.2hPa East 0.9mph /  1.4km/h 2.0mph /  3.2km/h 59% 0.00in /  0mm 0.0 W/m2
02:15 49.6 °F /  9.8 °C 36.0 °F /  2.2 °C 30.22in /  1023.2hPa Calm   2.0mph /  3.2km/h 59% 0.00in /  0mm 0.0 W/m2
02:21 49.5 °F /  9.7 °C 35.8 °F /  2.1 °C 30.21in /  1022.9hPa ENE 2.0mph /  3.2km/h 5.0mph /  8km/h 59% 0.00in /  0mm 0.0 W/m2
02:28 49.5 °F /  9.7 °C 36.1 °F /  2.3 °C 30.21in /  1022.9hPa Calm     60% 0.00in /  0mm 0.0 W/m2
02:34 49.5 °F /  9.7 °C 35.8 °F /  2.1 °C 30.21in /  1022.9hPa Calm   1.0mph /  1.6km/h 59% 0.00in /  0mm 0.0 W/m2
02:40 49.6 °F /  9.8 °C 36.0 °F /  2.2 °C 30.21in /  1022.9hPa East 4.0mph /  6.4km/h 4.0mph /  6.4km/h 59% 0.00in /  0mm 0.0 W/m2
02:46 49.6 °F /  9.8 °C 36.0 °F /  2.2 °C 30.21in /  1022.9hPa Calm   1.0mph /  1.6km/h 59% 0.00in /  0mm 0.0 W/m2
02:52 49.8 °F /  9.9 °C 35.6 °F /  2 °C 30.21in /  1022.9hPa ESE 2.0mph /  3.2km/h 4.0mph /  6.4km/h 58% 0.00in /  0mm 0.0 W/m2
02:58 50.2 °F /  10.1 °C 36.0 °F /  2.2 °C 30.21in /  1022.9hPa Calm   2.0mph /  3.2km/h 58% 0.00in /  0mm 0.0 W/m2
03:04 50.2 °F /  10.1 °C 36.0 °F /  2.2 °C 30.21in /  1022.9hPa Calm   1.0mph /  1.6km/h 58% 0.00in /  0mm 0.0 W/m2
03:11 50.0 °F /  10 °C 35.8 °F /  2.1 °C 30.20in /  1022.6hPa Calm   1.0mph /  1.6km/h 58% 0.00in /  0mm 0.0 W/m2
03:17 50.0 °F /  10 °C 35.8 °F /  2.1 °C 30.20in /  1022.6hPa Calm     58% 0.00in /  0mm 0.0 W/m2
03:23 49.8 °F /  9.9 °C 35.6 °F /  2 °C 30.20in /  1022.6hPa Calm   2.0mph /  3.2km/h 58% 0.00in /  0mm 0.0 W/m2
03:29 49.6 °F /  9.8 °C 36.0 °F /  2.2 °C 30.20in /  1022.6hPa Calm   2.0mph /  3.2km/h 59% 0.00in /  0mm 0.0 W/m2
03:35 49.5 °F /  9.7 °C 35.8 °F /  2.1 °C 30.19in /  1022.2hPa Calm   1.0mph /  1.6km/h 59% 0.00in /  0mm 0.0 W/m2
03:41 49.3 °F /  9.6 °C 35.6 °F /  2 °C 30.19in /  1022.2hPa Calm   1.0mph /  1.6km/h 59% 0.00in /  0mm 0.0 W/m2
03:47 49.3 °F /  9.6 °C 36.0 °F /  2.2 °C 30.19in /  1022.2hPa Calm   1.0mph /  1.6km/h 60% 0.00in /  0mm 0.0 W/m2
03:54 49.3 °F /  9.6 °C 36.0 °F /  2.2 °C 30.19in /  1022.2hPa Calm   2.0mph /  3.2km/h 60% 0.00in /  0mm 0.0 W/m2
04:00 49.1 °F /  9.5 °C 35.8 °F /  2.1 °C 30.19in /  1022.2hPa Calm     60% 0.00in /  0mm 0.0 W/m2
04:06 48.9 °F /  9.4 °C 35.6 °F /  2 °C 30.19in /  1022.2hPa ESE 0.9mph /  1.4km/h 2.0mph /  3.2km/h 60% 0.00in /  0mm 0.0 W/m2
04:12 48.7 °F /  9.3 °C 35.4 °F /  1.9 °C 30.19in /  1022.2hPa Calm   1.0mph /  1.6km/h 60% 0.00in /  0mm 0.0 W/m2
04:18 48.7 °F /  9.3 °C 35.4 °F /  1.9 °C 30.19in /  1022.2hPa Calm   2.0mph /  3.2km/h 60% 0.00in /  0mm 0.0 W/m2
04:24 48.7 °F /  9.3 °C 35.4 °F /  1.9 °C 30.19in /  1022.2hPa Calm   3.0mph /  4.8km/h 60% 0.00in /  0mm 0.0 W/m2
04:30 48.7 °F /  9.3 °C 35.4 °F /  1.9 °C 30.19in /  1022.2hPa Calm   2.0mph /  3.2km/h 60% 0.00in /  0mm 0.0 W/m2
04:36 48.7 °F /  9.3 °C 36.0 °F /  2.2 °C 30.20in /  1022.6hPa Calm     61% 0.00in /  0mm 0.0 W/m2
04:43 48.6 °F /  9.2 °C 35.8 °F /  2.1 °C 30.19in /  1022.2hPa East 0.9mph /  1.4km/h 3.0mph /  4.8km/h 61% 0.00in /  0mm 0.0 W/m2
04:49 48.6 °F /  9.2 °C 35.8 °F /  2.1 °C 30.19in /  1022.2hPa ENE 0.9mph /  1.4km/h 5.0mph /  8km/h 61% 0.00in /  0mm 0.0 W/m2
04:55 48.4 °F /  9.1 °C 35.6 °F /  2 °C 30.20in /  1022.6hPa Calm   2.0mph /  3.2km/h 61% 0.00in /  0mm 0.0 W/m2
05:01 48.6 °F /  9.2 °C 36.1 °F /  2.3 °C 30.20in /  1022.6hPa Calm   1.0mph /  1.6km/h 62% 0.00in /  0mm 0.0 W/m2
05:07 48.6 °F /  9.2 °C 35.8 °F /  2.1 °C 30.20in /  1022.6hPa Calm   2.0mph /  3.2km/h 61% 0.00in /  0mm 0.0 W/m2
05:13 48.4 °F /  9.1 °C 35.6 °F /  2 °C 30.20in /  1022.6hPa Calm     61% 0.00in /  0mm 0.0 W/m2
05:20 48.4 °F /  9.1 °C 36.0 °F /  2.2 °C 30.21in /  1022.9hPa Calm     62% 0.00in /  0mm 0.0 W/m2
05:26 48.4 °F /  9.1 °C 36.0 °F /  2.2 °C 30.21in /  1022.9hPa Calm     62% 0.00in /  0mm 0.0 W/m2
05:32 48.4 °F /  9.1 °C 36.0 °F /  2.2 °C 30.21in /  1022.9hPa Calm     62% 0.00in /  0mm 0.0 W/m2
05:38 48.0 °F /  8.9 °C 36.0 °F /  2.2 °C 30.21in /  1022.9hPa Calm     63% 0.00in /  0mm 0.0 W/m2
05:44 47.7 °F /  8.7 °C 36.1 °F /  2.3 °C 30.21in /  1022.9hPa Calm     64% 0.00in /  0mm 0.0 W/m2
05:50 47.5 °F /  8.6 °C 36.0 °F /  2.2 °C 30.21in /  1022.9hPa Calm     64% 0.00in /  0mm 0.0 W/m2
05:56 47.5 °F /  8.6 °C 36.0 °F /  2.2 °C 30.21in /  1022.9hPa East 2.9mph /  4.7km/h 3.0mph /  4.8km/h 64% 0.00in /  0mm 0.0 W/m2
06:02 47.8 °F /  8.8 °C 36.3 °F /  2.4 °C 30.21in /  1022.9hPa SE 0.9mph /  1.4km/h 1.0mph /  1.6km/h 64% 0.00in /  0mm 0.0 W/m2
06:09 48.0 °F /  8.9 °C 36.0 °F /  2.2 °C 30.21in /  1022.9hPa Calm   1.0mph /  1.6km/h 63% 0.00in /  0mm 0.0 W/m2
06:15 48.0 °F /  8.9 °C 36.0 °F /  2.2 °C 30.21in /  1022.9hPa Calm   2.0mph /  3.2km/h 63% 0.00in /  0mm 0.0 W/m2
06:21 48.2 °F /  9 °C 36.1 °F /  2.3 °C 30.21in /  1022.9hPa Calm   3.0mph /  4.8km/h 63% 0.00in /  0mm 0.0 W/m2
06:27 48.4 °F /  9.1 °C 36.3 °F /  2.4 °C 30.22in /  1023.2hPa Calm     63% 0.00in /  0mm 5.0 W/m2
06:33 48.4 °F /  9.1 °C 36.3 °F /  2.4 °C 30.22in /  1023.2hPa Calm   1.0mph /  1.6km/h 63% 0.00in /  0mm 9.0 W/m2
06:39 48.4 °F /  9.1 °C 36.0 °F /  2.2 °C 30.22in /  1023.2hPa Calm   3.0mph /  4.8km/h 62% 0.00in /  0mm 11.0 W/m2
06:45 48.6 °F /  9.2 °C 36.5 °F /  2.5 °C 30.22in /  1023.2hPa Calm   1.0mph /  1.6km/h 63% 0.00in /  0mm 12.0 W/m2
06:52 48.6 °F /  9.2 °C 36.5 °F /  2.5 °C 30.22in /  1023.2hPa Calm   1.0mph /  1.6km/h 63% 0.00in /  0mm 16.0 W/m2
06:58 48.6 °F /  9.2 °C 36.5 °F /  2.5 °C 30.22in /  1023.2hPa Calm   4.0mph /  6.4km/h 63% 0.00in /  0mm 18.0 W/m2
07:04 48.7 °F /  9.3 °C 36.7 °F /  2.6 °C 30.22in /  1023.2hPa Calm   3.0mph /  4.8km/h 63% 0.00in /  0mm 19.0 W/m2
07:10 48.9 °F /  9.4 °C 36.5 °F /  2.5 °C 30.23in /  1023.6hPa Calm     62% 0.00in /  0mm 21.0 W/m2
07:16 49.1 °F /  9.5 °C 37.0 °F /  2.8 °C 30.23in /  1023.6hPa Calm   3.0mph /  4.8km/h 63% 0.00in /  0mm 23.0 W/m2
07:22 49.6 °F /  9.8 °C 37.6 °F /  3.1 °C 30.23in /  1023.6hPa Calm     63% 0.00in /  0mm 25.0 W/m2
07:29 50.4 °F /  10.2 °C 37.8 °F /  3.2 °C 30.23in /  1023.6hPa Calm   1.0mph /  1.6km/h 62% 0.00in /  0mm 26.0 W/m2
07:35 50.7 °F /  10.4 °C 38.1 °F /  3.4 °C 30.23in /  1023.6hPa Calm   2.0mph /  3.2km/h 62% 0.00in /  0mm 26.0 W/m2
07:41 51.6 °F /  10.9 °C 38.7 °F /  3.7 °C 30.23in /  1023.6hPa Calm   1.0mph /  1.6km/h 61% 0.00in /  0mm 28.0 W/m2
07:47 52.3 °F /  11.3 °C 38.8 °F /  3.8 °C 30.24in /  1023.9hPa Calm   1.0mph /  1.6km/h 60% 0.00in /  0mm 30.0 W/m2
07:53 53.2 °F /  11.8 °C 39.7 °F /  4.3 °C 30.24in /  1023.9hPa Calm   1.0mph /  1.6km/h 60% 0.00in /  0mm 32.0 W/m2
07:59 54.5 °F /  12.5 °C 40.1 °F /  4.5 °C 30.24in /  1023.9hPa Calm     58% 0.00in /  0mm 35.0 W/m2
08:05 55.9 °F /  13.3 °C 40.5 °F /  4.7 °C 30.24in /  1023.9hPa Calm     56% 0.00in /  0mm 297.0 W/m2
08:12 57.2 °F /  14 °C 40.6 °F /  4.8 °C 30.24in /  1023.9hPa Calm   1.0mph /  1.6km/h 54% 0.00in /  0mm 338.0 W/m2
08:18 58.8 °F /  14.9 °C 41.7 °F /  5.4 °C 30.23in /  1023.6hPa Calm   1.0mph /  1.6km/h 53% 0.00in /  0mm 357.0 W/m2
08:24 60.4 °F /  15.8 °C 39.6 °F /  4.2 °C 30.24in /  1023.9hPa Calm   2.0mph /  3.2km/h 46% 0.00in /  0mm 380.0 W/m2
08:36 64.6 °F /  18.1 °C 40.3 °F /  4.6 °C 30.24in /  1023.9hPa Calm     41% 0.00in /  0mm 418.0 W/m2
08:42 66.0 °F /  18.9 °C 39.0 °F /  3.9 °C 30.24in /  1023.9hPa Calm     37% 0.00in /  0mm 436.0 W/m2
08:48 67.5 °F /  19.7 °C 40.3 °F /  4.6 °C 30.24in /  1023.9hPa Calm     37% 0.00in /  0mm 454.0 W/m2
08:54 69.1 °F /  20.6 °C 39.6 °F /  4.2 °C 30.24in /  1023.9hPa Calm     34% 0.00in /  0mm 471.0 W/m2
09:01 70.0 °F /  21.1 °C 39.6 °F /  4.2 °C 30.24in /  1023.9hPa Calm   1.0mph /  1.6km/h 33% 0.00in /  0mm 490.0 W/m2
09:07 70.7 °F /  21.5 °C 38.7 °F /  3.7 °C 30.24in /  1023.9hPa Calm   1.0mph /  1.6km/h 31% 0.00in /  0mm 508.0 W/m2
09:13 70.9 °F /  21.6 °C 38.7 °F /  3.7 °C 30.24in /  1023.9hPa Calm     31% 0.00in /  0mm 520.0 W/m2
09:19 71.1 °F /  21.7 °C 38.8 °F /  3.8 °C 30.24in /  1023.9hPa Calm   2.0mph /  3.2km/h 31% 0.00in /  0mm 536.0 W/m2
09:25 71.4 °F /  21.9 °C 40.1 °F /  4.5 °C 30.24in /  1023.9hPa Calm   1.0mph /  1.6km/h 32% 0.00in /  0mm 548.0 W/m2
09:31 71.8 °F /  22.1 °C 40.3 °F /  4.6 °C 30.24in /  1023.9hPa West 0.9mph /  1.4km/h 2.0mph /  3.2km/h 32% 0.00in /  0mm 561.0 W/m2
09:37 71.6 °F /  22 °C 39.4 °F /  4.1 °C 30.24in /  1023.9hPa WSW 0.9mph /  1.4km/h 2.0mph /  3.2km/h 31% 0.00in /  0mm 577.0 W/m2
09:43 71.4 °F /  21.9 °C 39.2 °F /  4 °C 30.24in /  1023.9hPa Calm   1.0mph /  1.6km/h 31% 0.00in /  0mm 589.0 W/m2
09:50 72.0 °F /  22.2 °C 38.8 °F /  3.8 °C 30.24in /  1023.9hPa NNW 2.0mph /  3.2km/h 4.0mph /  6.4km/h 30% 0.00in /  0mm 598.0 W/m2
09:56 72.7 °F /  22.6 °C 40.3 °F /  4.6 °C 30.24in /  1023.9hPa Calm   1.0mph /  1.6km/h 31% 0.00in /  0mm 610.0 W/m2
10:02 72.9 °F /  22.7 °C 39.6 °F /  4.2 °C 30.24in /  1023.9hPa NW 0.9mph /  1.4km/h 2.0mph /  3.2km/h 30% 0.00in /  0mm 622.0 W/m2
10:08 73.8 °F /  23.2 °C 38.7 °F /  3.7 °C 30.24in /  1023.9hPa Calm   3.0mph /  4.8km/h 28% 0.00in /  0mm 633.0 W/m2
10:14 74.1 °F /  23.4 °C 39.9 °F /  4.4 °C 30.24in /  1023.9hPa SW 0.9mph /  1.4km/h 2.0mph /  3.2km/h 29% 0.00in /  0mm 645.0 W/m2
10:20 73.8 °F /  23.2 °C 39.6 °F /  4.2 °C 30.24in /  1023.9hPa Calm   2.0mph /  3.2km/h 29% 0.00in /  0mm 650.0 W/m2
10:26 74.1 °F /  23.4 °C 39.9 °F /  4.4 °C 30.24in /  1023.9hPa North 4.0mph /  6.4km/h 4.0mph /  6.4km/h 29% 0.00in /  0mm 663.0 W/m2
10:32 74.7 °F /  23.7 °C 39.4 °F /  4.1 °C 30.24in /  1023.9hPa NNW 2.0mph /  3.2km/h 6.0mph /  9.7km/h 28% 0.00in /  0mm 668.0 W/m2
10:39 75.0 °F /  23.9 °C 39.7 °F /  4.3 °C 30.23in /  1023.6hPa Calm   4.0mph /  6.4km/h 28% 0.00in /  0mm 679.0 W/m2
10:45 75.2 °F /  24 °C 39.9 °F /  4.4 °C 30.23in /  1023.6hPa NNW 2.0mph /  3.2km/h 4.0mph /  6.4km/h 28% 0.00in /  0mm 682.0 W/m2
10:51 75.4 °F /  24.1 °C 40.1 °F /  4.5 °C 30.23in /  1023.6hPa NNW 0.9mph /  1.4km/h 3.0mph /  4.8km/h 28% 0.00in /  0mm 687.0 W/m2
10:57 75.6 °F /  24.2 °C 41.0 °F /  5 °C 30.23in /  1023.6hPa West 2.0mph /  3.2km/h 5.0mph /  8km/h 29% 0.00in /  0mm 694.0 W/m2
11:03 75.7 °F /  24.3 °C 39.4 °F /  4.1 °C 30.22in /  1023.2hPa North 0.9mph /  1.4km/h 5.0mph /  8km/h 27% 0.00in /  0mm 700.0 W/m2
11:09 76.1 °F /  24.5 °C 39.7 °F /  4.3 °C 30.22in /  1023.2hPa NNE 4.0mph /  6.4km/h 4.0mph /  6.4km/h 27% 0.00in /  0mm 701.0 W/m2
11:15 76.3 °F /  24.6 °C 39.9 °F /  4.4 °C 30.22in /  1023.2hPa NNE 4.9mph /  7.9km/h 5.0mph /  8km/h 27% 0.00in /  0mm 701.0 W/m2
11:21 76.5 °F /  24.7 °C 39.9 °F /  4.4 °C 30.21in /  1022.9hPa NNW 0.9mph /  1.4km/h 4.0mph /  6.4km/h 27% 0.00in /  0mm 703.0 W/m2
11:28 76.5 °F /  24.7 °C 39.9 °F /  4.4 °C 30.21in /  1022.9hPa North 0.9mph /  1.4km/h 7.0mph /  11.3km/h 27% 0.00in /  0mm 708.0 W/m2
11:34 76.3 °F /  24.6 °C 40.8 °F /  4.9 °C 30.21in /  1022.9hPa NNW 2.0mph /  3.2km/h 6.0mph /  9.7km/h 28% 0.00in /  0mm 712.0 W/m2
11:40 76.6 °F /  24.8 °C 40.1 °F /  4.5 °C 30.21in /  1022.9hPa WSW 2.0mph /  3.2km/h 5.0mph /  8km/h 27% 0.00in /  0mm 708.0 W/m2
11:46 76.6 °F /  24.8 °C 40.1 °F /  4.5 °C 30.20in /  1022.6hPa NNE 2.0mph /  3.2km/h 4.0mph /  6.4km/h 27% 0.00in /  0mm 717.0 W/m2
11:52 76.8 °F /  24.9 °C 40.3 °F /  4.6 °C 30.20in /  1022.6hPa Calm   2.0mph /  3.2km/h 27% 0.00in /  0mm 708.0 W/m2
11:58 76.6 °F /  24.8 °C 39.2 °F /  4 °C 30.20in /  1022.6hPa Calm   9.0mph /  14.5km/h 26% 0.00in /  0mm 707.0 W/m2
12:04 76.5 °F /  24.7 °C 39.9 °F /  4.4 °C 30.19in /  1022.2hPa Calm   1.0mph /  1.6km/h 27% 0.00in /  0mm 703.0 W/m2
12:10 76.8 °F /  24.9 °C 39.4 °F /  4.1 °C 30.19in /  1022.2hPa NW 0.9mph /  1.4km/h 9.0mph /  14.5km/h 26% 0.00in /  0mm 700.0 W/m2
12:16 77.5 °F /  25.3 °C 39.0 °F /  3.9 °C 30.19in /  1022.2hPa NNW 2.0mph /  3.2km/h 12.0mph /  19.3km/h 25% 0.00in /  0mm 700.0 W/m2
12:23 77.5 °F /  25.3 °C 39.0 °F /  3.9 °C 30.19in /  1022.2hPa North 2.9mph /  4.7km/h 7.0mph /  11.3km/h 25% 0.00in /  0mm 698.0 W/m2
12:29 77.4 °F /  25.2 °C 39.7 °F /  4.3 °C 30.19in /  1022.2hPa WNW 2.0mph /  3.2km/h 9.0mph /  14.5km/h 26% 0.00in /  0mm 689.0 W/m2
12:35 77.5 °F /  25.3 °C 39.0 °F /  3.9 °C 30.18in /  1021.9hPa North 6.9mph /  11.1km/h 8.0mph /  12.9km/h 25% 0.00in /  0mm 687.0 W/m2
12:41 77.4 °F /  25.2 °C 37.8 °F /  3.2 °C 30.18in /  1021.9hPa Calm   3.0mph /  4.8km/h 24% 0.00in /  0mm 682.0 W/m2
12:47 77.4 °F /  25.2 °C 37.8 °F /  3.2 °C 30.17in /  1021.6hPa NNW 2.0mph /  3.2km/h 9.0mph /  14.5km/h 24% 0.00in /  0mm 675.0 W/m2
12:53 77.7 °F /  25.4 °C 39.0 °F /  3.9 °C 30.18in /  1021.9hPa NE 0.9mph /  1.4km/h 7.0mph /  11.3km/h 25% 0.00in /  0mm 668.0 W/m2
12:59 77.9 °F /  25.5 °C 38.1 °F /  3.4 °C 30.17in /  1021.6hPa Calm   6.0mph /  9.7km/h 24% 0.00in /  0mm 663.0 W/m2
13:05 77.9 °F /  25.5 °C 38.1 °F /  3.4 °C 30.17in /  1021.6hPa NNW 4.0mph /  6.4km/h 10.0mph /  16.1km/h 24% 0.00in /  0mm 654.0 W/m2
13:12 77.9 °F /  25.5 °C 38.1 °F /  3.4 °C 30.16in /  1021.2hPa NW 2.0mph /  3.2km/h 5.0mph /  8km/h 24% 0.00in /  0mm 645.0 W/m2
13:18 78.3 °F /  25.7 °C 37.4 °F /  3 °C 30.16in /  1021.2hPa North 2.9mph /  4.7km/h 7.0mph /  11.3km/h 23% 0.00in /  0mm 633.0 W/m2
13:24 78.3 °F /  25.7 °C 37.4 °F /  3 °C 30.16in /  1021.2hPa WNW 2.9mph /  4.7km/h 6.0mph /  9.7km/h 23% 0.00in /  0mm 624.0 W/m2
13:30 78.3 °F /  25.7 °C 37.4 °F /  3 °C 30.15in /  1020.9hPa NNW 2.9mph /  4.7km/h 9.0mph /  14.5km/h 23% 0.00in /  0mm 615.0 W/m2
13:36 78.3 °F /  25.7 °C 37.4 °F /  3 °C 30.15in /  1020.9hPa North 4.9mph /  7.9km/h 8.0mph /  12.9km/h 23% 0.00in /  0mm 605.0 W/m2
13:42 78.3 °F /  25.7 °C 37.4 °F /  3 °C 30.15in /  1020.9hPa North 2.9mph /  4.7km/h 8.0mph /  12.9km/h 23% 0.00in /  0mm 592.0 W/m2
13:48 78.3 °F /  25.7 °C 36.3 °F /  2.4 °C 30.15in /  1020.9hPa Calm   6.0mph /  9.7km/h 22% 0.00in /  0mm 582.0 W/m2
13:54 78.4 °F /  25.8 °C 37.6 °F /  3.1 °C 30.15in /  1020.9hPa West 0.9mph /  1.4km/h 10.0mph /  16.1km/h 23% 0.00in /  0mm 564.0 W/m2
14:00 78.3 °F /  25.7 °C 36.3 °F /  2.4 °C 30.15in /  1020.9hPa North 0.9mph /  1.4km/h 9.0mph /  14.5km/h 22% 0.00in /  0mm 555.0 W/m2
14:07 78.3 °F /  25.7 °C 36.3 °F /  2.4 °C 30.14in /  1020.5hPa West 2.0mph /  3.2km/h 9.0mph /  14.5km/h 22% 0.00in /  0mm 536.0 W/m2
14:13 78.1 °F /  25.6 °C 36.1 °F /  2.3 °C 30.14in /  1020.5hPa West 0.9mph /  1.4km/h 9.0mph /  14.5km/h 22% 0.00in /  0mm 522.0 W/m2
14:19 78.1 °F /  25.6 °C 37.2 °F /  2.9 °C 30.14in /  1020.5hPa NW 2.0mph /  3.2km/h 7.0mph /  11.3km/h 23% 0.00in /  0mm 506.0 W/m2
14:25 78.1 °F /  25.6 °C 37.2 °F /  2.9 °C 30.14in /  1020.5hPa NNW 2.9mph /  4.7km/h 9.0mph /  14.5km/h 23% 0.00in /  0mm 487.0 W/m2
14:31 77.7 °F /  25.4 °C 37.0 °F /  2.8 °C 30.14in /  1020.5hPa North 2.0mph /  3.2km/h 7.0mph /  11.3km/h 23% 0.00in /  0mm 473.0 W/m2
14:38 77.9 °F /  25.5 °C 38.1 °F /  3.4 °C 30.14in /  1020.5hPa NNE 2.0mph /  3.2km/h 5.0mph /  8km/h 24% 0.00in /  0mm 454.0 W/m2
14:44 77.9 °F /  25.5 °C 37.0 °F /  2.8 °C 30.14in /  1020.5hPa WNW 0.9mph /  1.4km/h 5.0mph /  8km/h 23% 0.00in /  0mm 438.0 W/m2
14:50 77.7 °F /  25.4 °C 38.1 °F /  3.4 °C 30.14in /  1020.5hPa West 0.9mph /  1.4km/h 5.0mph /  8km/h 24% 0.00in /  0mm 424.0 W/m2
14:56 77.5 °F /  25.3 °C 37.9 °F /  3.3 °C 30.14in /  1020.5hPa Calm   8.0mph /  12.9km/h 24% 0.00in /  0mm 401.0 W/m2
15:02 77.5 °F /  25.3 °C 39.0 °F /  3.9 °C 30.14in /  1020.5hPa Calm   5.0mph /  8km/h 25% 0.00in /  0mm 383.0 W/m2
15:08 77.4 °F /  25.2 °C 38.8 °F /  3.8 °C 30.14in /  1020.5hPa NW 2.0mph /  3.2km/h 3.0mph /  4.8km/h 25% 0.00in /  0mm 364.0 W/m2
15:14 77.2 °F /  25.1 °C 38.7 °F /  3.7 °C 30.14in /  1020.5hPa NNW 2.0mph /  3.2km/h 4.0mph /  6.4km/h 25% 0.00in /  0mm 346.0 W/m2
15:20 76.8 °F /  24.9 °C 39.4 °F /  4.1 °C 30.14in /  1020.5hPa Calm   5.0mph /  8km/h 26% 0.00in /  0mm 323.0 W/m2
15:26 76.5 °F /  24.7 °C 39.0 °F /  3.9 °C 30.14in /  1020.5hPa West 2.9mph /  4.7km/h 5.0mph /  8km/h 26% 0.00in /  0mm 56.0 W/m2
15:33 75.9 °F /  24.4 °C 38.7 °F /  3.7 °C 30.14in /  1020.5hPa Calm   1.0mph /  1.6km/h 26% 0.00in /  0mm 54.0 W/m2
15:39 75.7 °F /  24.3 °C 39.4 °F /  4.1 °C 30.14in /  1020.5hPa WSW 2.0mph /  3.2km/h 8.0mph /  12.9km/h 27% 0.00in /  0mm 51.0 W/m2
15:45 75.4 °F /  24.1 °C 39.0 °F /  3.9 °C 30.14in /  1020.5hPa WSW 6.9mph /  11.1km/h 8.0mph /  12.9km/h 27% 0.00in /  0mm 49.0 W/m2
15:51 74.8 °F /  23.8 °C 38.7 °F /  3.7 °C 30.14in /  1020.5hPa SW 8.1mph /  13km/h 9.0mph /  14.5km/h 27% 0.00in /  0mm 44.0 W/m2
15:57 74.5 °F /  23.6 °C 38.3 °F /  3.5 °C 30.14in /  1020.5hPa WNW 4.9mph /  7.9km/h 9.0mph /  14.5km/h 27% 0.00in /  0mm 37.0 W/m2
16:03 73.9 °F /  23.3 °C 37.8 °F /  3.2 °C 30.14in /  1020.5hPa WSW 4.9mph /  7.9km/h 8.0mph /  12.9km/h 27% 0.00in /  0mm 32.0 W/m2
16:09 73.6 °F /  23.1 °C 38.5 °F /  3.6 °C 30.15in /  1020.9hPa Calm   4.0mph /  6.4km/h 28% 0.00in /  0mm 28.0 W/m2
16:15 73.6 °F /  23.1 °C 37.6 °F /  3.1 °C 30.15in /  1020.9hPa North 4.0mph /  6.4km/h 10.0mph /  16.1km/h 27% 0.00in /  0mm 26.0 W/m2
16:22 73.2 °F /  22.9 °C 38.1 °F /  3.4 °C 30.15in /  1020.9hPa West 0.9mph /  1.4km/h 3.0mph /  4.8km/h 28% 0.00in /  0mm 25.0 W/m2
16:28 73.0 °F /  22.8 °C 38.8 °F /  3.8 °C 30.15in /  1020.9hPa West 4.9mph /  7.9km/h 5.0mph /  8km/h 29% 0.00in /  0mm 23.0 W/m2
16:34 72.7 °F /  22.6 °C 37.8 °F /  3.2 °C 30.15in /  1020.9hPa WSW 0.9mph /  1.4km/h 5.0mph /  8km/h 28% 0.00in /  0mm 23.0 W/m2
16:40 72.5 °F /  22.5 °C 38.5 °F /  3.6 °C 30.15in /  1020.9hPa West 0.9mph /  1.4km/h 3.0mph /  4.8km/h 29% 0.00in /  0mm 21.0 W/m2
16:46 72.1 °F /  22.3 °C 38.1 °F /  3.4 °C 30.15in /  1020.9hPa WNW 0.9mph /  1.4km/h 5.0mph /  8km/h 29% 0.00in /  0mm 18.0 W/m2
16:52 72.0 °F /  22.2 °C 37.9 °F /  3.3 °C 30.15in /  1020.9hPa WSW 8.1mph /  13km/h 8.1mph /  13km/h 29% 0.00in /  0mm 16.0 W/m2
16:58 71.6 °F /  22 °C 37.6 °F /  3.1 °C 30.15in /  1020.9hPa West 2.9mph /  4.7km/h 7.0mph /  11.3km/h 29% 0.00in /  0mm 12.0 W/m2
17:04 71.2 °F /  21.8 °C 38.3 °F /  3.5 °C 30.16in /  1021.2hPa Calm   2.0mph /  3.2km/h 30% 0.00in /  0mm 9.0 W/m2
17:11 70.9 °F /  21.6 °C 37.9 °F /  3.3 °C 30.16in /  1021.2hPa West 0.9mph /  1.4km/h 3.0mph /  4.8km/h 30% 0.00in /  0mm 5.0 W/m2
17:17 70.3 °F /  21.3 °C 38.3 °F /  3.5 °C 30.16in /  1021.2hPa Calm   3.0mph /  4.8km/h 31% 0.00in /  0mm 0.0 W/m2
17:23 70.0 °F /  21.1 °C 37.9 °F /  3.3 °C 30.16in /  1021.2hPa Calm   3.0mph /  4.8km/h 31% 0.00in /  0mm 0.0 W/m2
17:29 69.4 °F /  20.8 °C 38.3 °F /  3.5 °C 30.16in /  1021.2hPa Calm     32% 0.00in /  0mm 0.0 W/m2
17:35 69.1 °F /  20.6 °C 37.9 °F /  3.3 °C 30.16in /  1021.2hPa Calm   1.0mph /  1.6km/h 32% 0.00in /  0mm 0.0 W/m2
17:41 68.5 °F /  20.3 °C 38.3 °F /  3.5 °C 30.17in /  1021.6hPa Calm   2.0mph /  3.2km/h 33% 0.00in /  0mm 0.0 W/m2
17:47 68.0 °F /  20 °C 37.8 °F /  3.2 °C 30.17in /  1021.6hPa Calm   1.0mph /  1.6km/h 33% 0.00in /  0mm 0.0 W/m2
17:53 67.5 °F /  19.7 °C 38.1 °F /  3.4 °C 30.17in /  1021.6hPa Calm     34% 0.00in /  0mm 0.0 W/m2
17:59 66.9 °F /  19.4 °C 37.6 °F /  3.1 °C 30.18in /  1021.9hPa Calm   1.0mph /  1.6km/h 34% 0.00in /  0mm 0.0 W/m2
18:06 66.6 °F /  19.2 °C 38.1 °F /  3.4 °C 30.18in /  1021.9hPa Calm   1.0mph /  1.6km/h 35% 0.00in /  0mm 0.0 W/m2
18:12 65.8 °F /  18.8 °C 38.1 °F /  3.4 °C 30.18in /  1021.9hPa Calm     36% 0.00in /  0mm 0.0 W/m2
18:18 65.3 °F /  18.5 °C 38.3 °F /  3.5 °C 30.18in /  1021.9hPa Calm     37% 0.00in /  0mm 0.0 W/m2
18:24 64.8 °F /  18.2 °C 38.5 °F /  3.6 °C 30.18in /  1021.9hPa Calm     38% 0.00in /  0mm 0.0 W/m2
18:30 64.2 °F /  17.9 °C 38.1 °F /  3.4 °C 30.19in /  1022.2hPa Calm     38% 0.00in /  0mm 0.0 W/m2
18:36 63.7 °F /  17.6 °C 38.3 °F /  3.5 °C 30.19in /  1022.2hPa Calm     39% 0.00in /  0mm 0.0 W/m2
18:42 63.1 °F /  17.3 °C 37.8 °F /  3.2 °C 30.19in /  1022.2hPa Calm     39% 0.00in /  0mm 0.0 W/m2
18:48 62.8 °F /  17.1 °C 37.4 °F /  3 °C 30.19in /  1022.2hPa Calm     39% 0.00in /  0mm 0.0 W/m2
18:54 62.4 °F /  16.9 °C 37.2 °F /  2.9 °C 30.20in /  1022.6hPa Calm     39% 0.00in /  0mm 0.0 W/m2
19:00 62.2 °F /  16.8 °C 37.0 °F /  2.8 °C 30.20in /  1022.6hPa SW 0.9mph /  1.4km/h 2.0mph /  3.2km/h 39% 0.00in /  0mm 0.0 W/m2
19:07 62.1 °F /  16.7 °C 36.1 °F /  2.3 °C 30.20in /  1022.6hPa Calm     38% 0.00in /  0mm 0.0 W/m2
19:13 62.1 °F /  16.7 °C 36.9 °F /  2.7 °C 30.20in /  1022.6hPa Calm     39% 0.00in /  0mm 0.0 W/m2
19:19 61.7 °F /  16.5 °C 37.2 °F /  2.9 °C 30.21in /  1022.9hPa Calm     40% 0.00in /  0mm 0.0 W/m2
19:25 61.3 °F /  16.3 °C 36.9 °F /  2.7 °C 30.21in /  1022.9hPa Calm     40% 0.00in /  0mm 0.0 W/m2
19:31 61.0 °F /  16.1 °C 37.0 °F /  2.8 °C 30.21in /  1022.9hPa Calm     41% 0.00in /  0mm 0.0 W/m2
19:37 60.3 °F /  15.7 °C 36.5 °F /  2.5 °C 30.21in /  1022.9hPa Calm     41% 0.00in /  0mm 0.0 W/m2
19:43 59.7 °F /  15.4 °C 36.5 °F /  2.5 °C 30.21in /  1022.9hPa Calm     42% 0.00in /  0mm 0.0 W/m2
19:50 59.2 °F /  15.1 °C 36.7 °F /  2.6 °C 30.22in /  1023.2hPa Calm     43% 0.00in /  0mm 0.0 W/m2
19:55 58.8 °F /  14.9 °C 37.0 °F /  2.8 °C 30.22in /  1023.2hPa Calm     44% 0.00in /  0mm 0.0 W/m2
20:01 58.5 °F /  14.7 °C 36.7 °F /  2.6 °C 30.23in /  1023.6hPa Calm     44% 0.00in /  0mm 0.0 W/m2
20:08 57.9 °F /  14.4 °C 36.1 °F /  2.3 °C 30.23in /  1023.6hPa Calm     44% 0.00in /  0mm 0.0 W/m2
20:14 57.7 °F /  14.3 °C 36.0 °F /  2.2 °C 30.23in /  1023.6hPa Calm     44% 0.00in /  0mm 0.0 W/m2
20:20 57.6 °F /  14.2 °C 35.8 °F /  2.1 °C 30.23in /  1023.6hPa Calm   2.0mph /  3.2km/h 44% 0.00in /  0mm 0.0 W/m2
20:26 57.4 °F /  14.1 °C 35.6 °F /  2 °C 30.23in /  1023.6hPa Calm   2.0mph /  3.2km/h 44% 0.00in /  0mm 0.0 W/m2
20:32 57.4 °F /  14.1 °C 36.1 °F /  2.3 °C 30.24in /  1023.9hPa Calm     45% 0.00in /  0mm 0.0 W/m2
20:38 57.4 °F /  14.1 °C 36.1 °F /  2.3 °C 30.24in /  1023.9hPa NW 2.0mph /  3.2km/h 2.0mph /  3.2km/h 45% 0.00in /  0mm 0.0 W/m2
20:44 57.4 °F /  14.1 °C 36.1 °F /  2.3 °C 30.24in /  1023.9hPa ESE 2.9mph /  4.7km/h 4.0mph /  6.4km/h 45% 0.00in /  0mm 0.0 W/m2
20:50 57.7 °F /  14.3 °C 36.0 °F /  2.2 °C 30.24in /  1023.9hPa Calm     44% 0.00in /  0mm 0.0 W/m2
20:56 57.9 °F /  14.4 °C 36.1 °F /  2.3 °C 30.24in /  1023.9hPa Calm   1.0mph /  1.6km/h 44% 0.00in /  0mm 0.0 W/m2
21:02 57.9 °F /  14.4 °C 36.1 °F /  2.3 °C 30.24in /  1023.9hPa Calm     44% 0.00in /  0mm 0.0 W/m2
21:08 57.7 °F /  14.3 °C 36.0 °F /  2.2 °C 30.25in /  1024.3hPa Calm   1.0mph /  1.6km/h 44% 0.00in /  0mm 0.0 W/m2
21:14 57.4 °F /  14.1 °C 36.1 °F /  2.3 °C 30.25in /  1024.3hPa Calm   2.0mph /  3.2km/h 45% 0.00in /  0mm 0.0 W/m2
21:20 57.0 °F /  13.9 °C 36.0 °F /  2.2 °C 30.25in /  1024.3hPa Calm   1.0mph /  1.6km/h 45% 0.00in /  0mm 0.0 W/m2
21:26 56.8 °F /  13.8 °C 36.3 °F /  2.4 °C 30.25in /  1024.3hPa Calm   1.0mph /  1.6km/h 46% 0.00in /  0mm 0.0 W/m2
21:32 56.7 °F /  13.7 °C 36.1 °F /  2.3 °C 30.25in /  1024.3hPa Calm   1.0mph /  1.6km/h 46% 0.00in /  0mm 0.0 W/m2
21:38 56.7 °F /  13.7 °C 36.1 °F /  2.3 °C 30.25in /  1024.3hPa Calm   2.0mph /  3.2km/h 46% 0.00in /  0mm 0.0 W/m2
21:44 56.5 °F /  13.6 °C 36.0 °F /  2.2 °C 30.25in /  1024.3hPa Calm     46% 0.00in /  0mm 0.0 W/m2
21:50 56.5 °F /  13.6 °C 36.0 °F /  2.2 °C 30.25in /  1024.3hPa Calm     46% 0.00in /  0mm 0.0 W/m2
21:56 56.1 °F /  13.4 °C 35.6 °F /  2 °C 30.25in /  1024.3hPa Calm   1.0mph /  1.6km/h 46% 0.00in /  0mm 0.0 W/m2
22:02 56.1 °F /  13.4 °C 35.6 °F /  2 °C 30.25in /  1024.3hPa Calm   1.0mph /  1.6km/h 46% 0.00in /  0mm 0.0 W/m2
22:09 55.9 °F /  13.3 °C 36.0 °F /  2.2 °C 30.25in /  1024.3hPa Calm     47% 0.00in /  0mm 0.0 W/m2
22:15 55.8 °F /  13.2 °C 35.8 °F /  2.1 °C 30.25in /  1024.3hPa Calm     47% 0.00in /  0mm 0.0 W/m2
22:21 55.6 °F /  13.1 °C 36.1 °F /  2.3 °C 30.25in /  1024.3hPa Calm     48% 0.00in /  0mm 0.0 W/m2
22:27 55.2 °F /  12.9 °C 36.0 °F /  2.2 °C 30.25in /  1024.3hPa Calm   1.0mph /  1.6km/h 48% 0.00in /  0mm 0.0 W/m2
22:33 55.0 °F /  12.8 °C 35.8 °F /  2.1 °C 30.25in /  1024.3hPa Calm     48% 0.00in /  0mm 0.0 W/m2
22:39 55.0 °F /  12.8 °C 35.8 °F /  2.1 °C 30.25in /  1024.3hPa Calm     48% 0.00in /  0mm 0.0 W/m2
22:45 55.0 °F /  12.8 °C 36.1 °F /  2.3 °C 30.26in /  1024.6hPa Calm     49% 0.00in /  0mm 0.0 W/m2
22:51 54.9 °F /  12.7 °C 35.6 °F /  2 °C 30.26in /  1024.6hPa Calm     48% 0.00in /  0mm 0.0 W/m2
22:57 54.9 °F /  12.7 °C 35.1 °F /  1.7 °C 30.26in /  1024.6hPa Calm     47% 0.00in /  0mm 0.0 W/m2
23:03 54.7 °F /  12.6 °C 34.9 °F /  1.6 °C 30.25in /  1024.3hPa Calm     47% 0.00in /  0mm 0.0 W/m2
23:09 54.7 °F /  12.6 °C 34.9 °F /  1.6 °C 30.25in /  1024.3hPa Calm     47% 0.00in /  0mm 0.0 W/m2
23:15 54.7 °F /  12.6 °C 36.0 °F /  2.2 °C 30.25in /  1024.3hPa Calm     49% 0.00in /  0mm 0.0 W/m2
23:21 54.7 °F /  12.6 °C 35.4 °F /  1.9 °C 30.25in /  1024.3hPa Calm     48% 0.00in /  0mm 0.0 W/m2
23:27 54.3 °F /  12.4 °C 35.1 °F /  1.7 °C 30.25in /  1024.3hPa Calm     48% 0.00in /  0mm 0.0 W/m2
23:33 54.3 °F /  12.4 °C 35.1 °F /  1.7 °C 30.25in /  1024.3hPa Calm     48% 0.00in /  0mm 0.0 W/m2
23:39 54.3 °F /  12.4 °C 35.1 °F /  1.7 °C 30.25in /  1024.3hPa Calm     48% 0.00in /  0mm 0.0 W/m2
23:46 54.3 °F /  12.4 °C 35.6 °F /  2 °C 30.25in /  1024.3hPa Calm     49% 0.00in /  0mm 0.0 W/m2
23:52 54.3 °F /  12.4 °C 35.6 °F /  2 °C 30.24in /  1023.9hPa Calm     49% 0.00in /  0mm 0.0 W/m2
23:58 54.5 °F /  12.5 °C 35.8 °F /  2.1 °C 30.24in /  1023.9hPa Calm     49% 0.00in /  0mm 0.0 W/m2
Olympia, Windhoek, Namibia
Compliments of Weather Underground - 3 mb